WMT1041 LRIA-LIRF
Flight info
| Callsign | WMT1041 |
|---|---|
| Flight time | N/A |
| Altitude | 36000 |
| Route | ABOLO DCT GUXVA DCT DIRER DCT VEBAR DCT DIXUM DCT VELUG/N0441F330 DCT ESODU/N0371F190 Z924 MOPUV |
| Aircraft | A321/M-SDE3FGHIRWY/LB1 |
Departure
| Time | 2026-04-21 18:00 |
|---|---|
| Airport | Iaşi International Airport (LRIA) |
Arrival
| Time | N/A |
|---|---|
| Airport | Rome–Fiumicino Leonardo da Vinci International Airport (LIRF) |
| Time | Latitude | Longitude | Altitude | Speed | Heading |
|---|---|---|---|---|---|
| 2026-04-21 17:42 | 47.17450 | 27.62045 | 349 ft | 0 kts | 273° |
| 2026-04-21 17:53 | 47.17450 | 27.62058 | 348 ft | 2 kts | 258° |
| 2026-04-21 17:53 | 47.17456 | 27.62077 | 348 ft | 2 kts | 233° |
| 2026-04-21 17:53 | 47.17467 | 27.62093 | 348 ft | 2 kts | 208° |
| 2026-04-21 17:54 | 47.17481 | 27.62100 | 348 ft | 2 kts | 184° |
| 2026-04-21 17:54 | 47.17495 | 27.62097 | 349 ft | 2 kts | 160° |
| 2026-04-21 17:54 | 47.17509 | 27.62087 | 350 ft | 2 kts | 150° |
| 2026-04-21 17:54 | 47.17514 | 27.62083 | 350 ft | 0 kts | 154° |
| 2026-04-21 17:56 | 47.17489 | 27.62103 | 349 ft | 7 kts | 150° |
| 2026-04-21 17:56 | 47.17422 | 27.62161 | 345 ft | 14 kts | 149° |
| 2026-04-21 17:57 | 47.17326 | 27.62248 | 339 ft | 18 kts | 149° |
| 2026-04-21 17:57 | 47.17273 | 27.62402 | 334 ft | 19 kts | 62° |
| 2026-04-21 17:57 | 47.17313 | 27.62506 | 336 ft | 9 kts | 59° |
| 2026-04-21 17:57 | 47.17350 | 27.62597 | 334 ft | 12 kts | 62° |
| 2026-04-21 17:58 | 47.17320 | 27.62717 | 330 ft | 15 kts | 148° |
| 2026-04-21 17:58 | 47.17221 | 27.62811 | 326 ft | 18 kts | 139° |
| 2026-04-21 17:58 | 47.17160 | 27.62932 | 320 ft | 12 kts | 145° |
| 2026-04-21 17:58 | 47.17142 | 27.62870 | 322 ft | 11 kts | 333° |
| 2026-04-21 17:59 | 47.17178 | 27.62842 | 324 ft | 0 kts | 329° |
| 2026-04-21 17:59 | 47.17215 | 27.62809 | 326 ft | 28 kts | 329° |
| 2026-04-21 17:59 | 47.17589 | 27.62478 | 345 ft | 95 kts | 328° |
| 2026-04-21 17:59 | 47.18327 | 27.61824 | 388 ft | 151 kts | 329° |
| 2026-04-21 18:00 | 47.19289 | 27.60962 | 771 ft | 168 kts | 329° |
| 2026-04-21 18:00 | 47.20301 | 27.60120 | 1381 ft | 171 kts | 328° |
| 2026-04-21 18:00 | 47.21125 | 27.58877 | 2047 ft | 174 kts | 297° |
| 2026-04-21 18:00 | 47.21265 | 27.57154 | 2508 ft | 179 kts | 254° |
| 2026-04-21 18:01 | 47.20469 | 27.55725 | 2726 ft | 191 kts | 213° |
| 2026-04-21 18:01 | 47.19275 | 27.54756 | 2977 ft | 202 kts | 210° |
| 2026-04-21 18:01 | 47.18020 | 27.53685 | 3230 ft | 214 kts | 213° |
| 2026-04-21 18:01 | 47.16735 | 27.52439 | 3493 ft | 227 kts | 216° |
| 2026-04-21 18:02 | 47.15396 | 27.51021 | 3697 ft | 245 kts | 218° |
| 2026-04-21 18:02 | 47.14001 | 27.49468 | 3998 ft | 260 kts | 219° |
| 2026-04-21 18:02 | 47.12544 | 27.47804 | 4425 ft | 271 kts | 219° |
| 2026-04-21 18:02 | 47.11047 | 27.46079 | 5083 ft | 273 kts | 219° |
| 2026-04-21 18:03 | 47.09563 | 27.44363 | 5754 ft | 275 kts | 220° |
| 2026-04-21 18:03 | 47.08066 | 27.42627 | 6413 ft | 277 kts | 220° |
| 2026-04-21 18:03 | 47.06551 | 27.40872 | 7083 ft | 279 kts | 220° |
| 2026-04-21 18:03 | 47.05033 | 27.39116 | 7749 ft | 281 kts | 220° |
| 2026-04-21 18:04 | 47.03502 | 27.37346 | 8406 ft | 283 kts | 221° |
| 2026-04-21 18:04 | 47.01958 | 27.35563 | 9044 ft | 285 kts | 221° |
| 2026-04-21 18:04 | 47.00387 | 27.33747 | 9686 ft | 287 kts | 221° |
| 2026-04-21 18:04 | 46.98780 | 27.32015 | 10301 ft | 290 kts | 219° |
| 2026-04-21 18:05 | 46.97111 | 27.30262 | 10635 ft | 303 kts | 219° |
| 2026-04-21 18:05 | 46.95354 | 27.28419 | 10907 ft | 317 kts | 219° |
| 2026-04-21 18:05 | 46.93541 | 27.26522 | 11172 ft | 330 kts | 218° |
| 2026-04-21 18:05 | 46.91623 | 27.24517 | 11429 ft | 344 kts | 218° |
| 2026-04-21 18:06 | 46.89656 | 27.22466 | 11786 ft | 353 kts | 218° |
| 2026-04-21 18:06 | 46.87640 | 27.20367 | 12329 ft | 356 kts | 218° |
| 2026-04-21 18:06 | 46.85611 | 27.18254 | 12890 ft | 358 kts | 218° |
| 2026-04-21 18:06 | 46.83583 | 27.16143 | 13422 ft | 361 kts | 218° |
| 2026-04-21 18:07 | 46.81530 | 27.14008 | 13955 ft | 363 kts | 218° |
| 2026-04-21 18:07 | 46.79473 | 27.11869 | 14471 ft | 366 kts | 218° |
| 2026-04-21 18:07 | 46.77423 | 27.09741 | 14993 ft | 368 kts | 219° |
| 2026-04-21 18:07 | 46.75489 | 27.07306 | 15509 ft | 366 kts | 231° |
| 2026-04-21 18:08 | 46.74009 | 27.04333 | 16047 ft | 362 kts | 243° |
| 2026-04-21 18:08 | 46.72964 | 27.01022 | 16590 ft | 361 kts | 250° |
| 2026-04-21 18:08 | 46.72021 | 26.97621 | 17103 ft | 362 kts | 251° |
| 2026-04-21 18:08 | 46.71093 | 26.94234 | 17587 ft | 364 kts | 250° |
| 2026-04-21 18:09 | 46.70151 | 26.90808 | 18072 ft | 366 kts | 250° |
| 2026-04-21 18:09 | 46.69209 | 26.87401 | 18557 ft | 367 kts | 250° |
| 2026-04-21 18:09 | 46.68253 | 26.83961 | 19019 ft | 368 kts | 250° |
| 2026-04-21 18:09 | 46.67279 | 26.80466 | 19443 ft | 371 kts | 250° |
| 2026-04-21 18:10 | 46.66302 | 26.76974 | 19828 ft | 374 kts | 250° |
| 2026-04-21 18:10 | 46.65331 | 26.73504 | 20220 ft | 377 kts | 250° |
| 2026-04-21 18:10 | 46.64341 | 26.69975 | 20614 ft | 379 kts | 250° |
| 2026-04-21 18:10 | 46.63333 | 26.66382 | 20985 ft | 382 kts | 251° |
| 2026-04-21 18:11 | 46.62329 | 26.62812 | 21354 ft | 385 kts | 250° |
| 2026-04-21 18:11 | 46.61307 | 26.59186 | 21710 ft | 388 kts | 250° |
| 2026-04-21 18:11 | 46.60279 | 26.55549 | 22059 ft | 390 kts | 251° |
| 2026-04-21 18:11 | 46.59241 | 26.51884 | 22419 ft | 392 kts | 251° |
| 2026-04-21 18:12 | 46.58207 | 26.48233 | 22736 ft | 395 kts | 251° |
| 2026-04-21 18:12 | 46.57149 | 26.44505 | 23077 ft | 398 kts | 251° |
| 2026-04-21 18:12 | 46.56091 | 26.40787 | 23391 ft | 400 kts | 251° |
| 2026-04-21 18:12 | 46.55024 | 26.37042 | 23698 ft | 403 kts | 251° |
| 2026-04-21 18:13 | 46.53966 | 26.33332 | 24008 ft | 405 kts | 250° |
| 2026-04-21 18:13 | 46.52877 | 26.29519 | 24319 ft | 407 kts | 250° |
| 2026-04-21 18:13 | 46.51792 | 26.25725 | 24641 ft | 409 kts | 250° |
| 2026-04-21 18:13 | 46.50707 | 26.21936 | 24911 ft | 411 kts | 250° |
| 2026-04-21 18:14 | 46.48492 | 26.14224 | 25441 ft | 414 kts | 250° |
| 2026-04-21 18:14 | 46.47398 | 26.10423 | 25748 ft | 414 kts | 250° |
| 2026-04-21 18:14 | 46.46285 | 26.06565 | 26035 ft | 415 kts | 250° |
| 2026-04-21 18:15 | 46.45169 | 26.02698 | 26268 ft | 417 kts | 250° |
| 2026-04-21 18:15 | 46.44046 | 25.98818 | 26539 ft | 417 kts | 250° |
| 2026-04-21 18:15 | 46.42926 | 25.94952 | 26793 ft | 418 kts | 250° |
| 2026-04-21 18:15 | 46.41795 | 25.91054 | 27042 ft | 419 kts | 250° |
| 2026-04-21 18:16 | 46.40657 | 25.87134 | 27254 ft | 422 kts | 250° |
| 2026-04-21 18:16 | 46.39530 | 25.83263 | 27413 ft | 424 kts | 250° |
| 2026-04-21 18:16 | 46.38377 | 25.79311 | 27642 ft | 425 kts | 250° |
| 2026-04-21 18:16 | 46.37237 | 25.75408 | 27897 ft | 425 kts | 250° |
| 2026-04-21 18:17 | 46.36073 | 25.71430 | 28150 ft | 425 kts | 250° |
| 2026-04-21 18:17 | 46.34933 | 25.67538 | 28348 ft | 427 kts | 250° |
| 2026-04-21 18:17 | 46.33771 | 25.63573 | 28586 ft | 426 kts | 250° |
| 2026-04-21 18:17 | 46.32617 | 25.59648 | 28896 ft | 424 kts | 250° |
| 2026-04-21 18:18 | 46.31462 | 25.55724 | 29199 ft | 423 kts | 250° |
| 2026-04-21 18:18 | 46.30319 | 25.51849 | 29476 ft | 421 kts | 250° |
| 2026-04-21 18:18 | 46.29168 | 25.47955 | 29761 ft | 420 kts | 250° |
| 2026-04-21 18:18 | 46.28024 | 25.44087 | 30018 ft | 419 kts | 250° |
| 2026-04-21 18:19 | 46.26890 | 25.40256 | 30258 ft | 418 kts | 250° |
| 2026-04-21 18:19 | 46.25737 | 25.36368 | 30492 ft | 418 kts | 250° |
| 2026-04-21 18:19 | 46.24601 | 25.32546 | 30727 ft | 417 kts | 250° |
| 2026-04-21 18:19 | 46.23459 | 25.28707 | 30931 ft | 417 kts | 250° |
| 2026-04-21 18:20 | 46.22316 | 25.24872 | 31125 ft | 417 kts | 250° |
| 2026-04-21 18:20 | 46.21175 | 25.21048 | 31353 ft | 416 kts | 250° |
| 2026-04-21 18:20 | 46.20022 | 25.17185 | 31575 ft | 414 kts | 250° |
| 2026-04-21 18:20 | 46.18887 | 25.13390 | 31774 ft | 414 kts | 250° |
| 2026-04-21 18:21 | 46.17754 | 25.09612 | 31976 ft | 413 kts | 250° |
| 2026-04-21 18:21 | 46.16625 | 25.05848 | 32153 ft | 412 kts | 250° |
| 2026-04-21 18:21 | 46.15476 | 25.02027 | 32309 ft | 412 kts | 250° |
| 2026-04-21 18:21 | 46.14346 | 24.98278 | 32461 ft | 413 kts | 250° |
| 2026-04-21 18:22 | 46.13196 | 24.94464 | 32629 ft | 412 kts | 250° |
| 2026-04-21 18:22 | 46.12060 | 24.90708 | 32809 ft | 411 kts | 250° |
| 2026-04-21 18:22 | 46.10926 | 24.86961 | 32972 ft | 411 kts | 250° |
| 2026-04-21 18:22 | 46.09774 | 24.83164 | 33124 ft | 410 kts | 250° |
| 2026-04-21 18:23 | 46.08642 | 24.79432 | 33271 ft | 410 kts | 250° |
| 2026-04-21 18:23 | 46.07496 | 24.75658 | 33404 ft | 410 kts | 250° |
| 2026-04-21 18:23 | 46.06361 | 24.71925 | 33547 ft | 410 kts | 250° |
| 2026-04-21 18:23 | 46.05221 | 24.68186 | 33710 ft | 409 kts | 250° |
| 2026-04-21 18:24 | 46.04077 | 24.64435 | 33878 ft | 408 kts | 250° |
| 2026-04-21 18:24 | 46.02944 | 24.60728 | 34027 ft | 407 kts | 250° |
| 2026-04-21 18:24 | 46.01801 | 24.56996 | 34151 ft | 408 kts | 250° |
| 2026-04-21 18:24 | 46.00665 | 24.53293 | 34275 ft | 408 kts | 250° |
| 2026-04-21 18:25 | 45.99519 | 24.49560 | 34398 ft | 409 kts | 250° |
| 2026-04-21 18:25 | 45.98371 | 24.45830 | 34517 ft | 409 kts | 250° |
| 2026-04-21 18:25 | 45.97216 | 24.42080 | 34629 ft | 410 kts | 250° |
| 2026-04-21 18:26 | 45.94900 | 24.34575 | 34842 ft | 411 kts | 249° |
| 2026-04-21 18:26 | 45.93740 | 24.30826 | 34958 ft | 411 kts | 249° |
| 2026-04-21 18:26 | 45.92588 | 24.27107 | 35048 ft | 412 kts | 249° |
| 2026-04-21 18:27 | 45.90251 | 24.19576 | 35207 ft | 415 kts | 249° |
| 2026-04-21 18:27 | 45.87905 | 24.12040 | 35404 ft | 416 kts | 249° |
| 2026-04-21 18:28 | 45.85535 | 24.04453 | 35570 ft | 417 kts | 249° |
| 2026-04-21 18:28 | 45.83160 | 23.96874 | 35733 ft | 419 kts | 249° |
| 2026-04-21 18:29 | 45.80763 | 23.89245 | 35910 ft | 420 kts | 249° |
| 2026-04-21 18:29 | 45.78366 | 23.81637 | 35975 ft | 421 kts | 249° |
| 2026-04-21 18:30 | 45.75949 | 23.73992 | 35978 ft | 420 kts | 249° |
| 2026-04-21 18:30 | 45.73550 | 23.66421 | 35953 ft | 419 kts | 249° |
| 2026-04-21 18:31 | 45.71146 | 23.58863 | 35952 ft | 418 kts | 249° |
| 2026-04-21 18:31 | 45.68740 | 23.51316 | 35940 ft | 418 kts | 249° |
| 2026-04-21 18:32 | 45.66317 | 23.43738 | 35938 ft | 418 kts | 249° |
| 2026-04-21 18:32 | 45.63913 | 23.36239 | 35945 ft | 418 kts | 249° |
| 2026-04-21 18:33 | 45.61484 | 23.28691 | 35952 ft | 419 kts | 249° |
| 2026-04-21 18:33 | 45.59056 | 23.21162 | 35954 ft | 418 kts | 249° |
| 2026-04-21 18:34 | 45.56628 | 23.13658 | 35958 ft | 417 kts | 249° |
| 2026-04-21 18:34 | 45.54197 | 23.06162 | 35961 ft | 418 kts | 249° |
| 2026-04-21 18:35 | 45.52164 | 22.99917 | 35968 ft | 417 kts | 249° |
| 2026-04-21 18:35 | 45.49303 | 22.91147 | 35975 ft | 418 kts | 249° |
| 2026-04-21 18:36 | 45.46849 | 22.83652 | 35967 ft | 416 kts | 249° |
| 2026-04-21 18:36 | 45.44397 | 22.76174 | 35963 ft | 416 kts | 249° |
| 2026-04-21 18:37 | 45.41951 | 22.68744 | 35960 ft | 416 kts | 249° |
| 2026-04-21 18:37 | 45.39495 | 22.61307 | 35971 ft | 415 kts | 249° |
| 2026-04-21 18:38 | 45.37043 | 22.53900 | 35961 ft | 414 kts | 249° |
| 2026-04-21 18:38 | 45.34594 | 22.46512 | 35971 ft | 415 kts | 249° |
| 2026-04-21 18:39 | 45.32144 | 22.39156 | 35969 ft | 414 kts | 249° |
| 2026-04-21 18:39 | 45.29669 | 22.31743 | 35967 ft | 413 kts | 248° |
| 2026-04-21 18:40 | 45.27203 | 22.24377 | 35983 ft | 412 kts | 249° |
| 2026-04-21 18:40 | 45.25145 | 22.18241 | 35977 ft | 413 kts | 249° |
| 2026-04-21 18:41 | 45.22253 | 22.09647 | 35983 ft | 413 kts | 249° |
| 2026-04-21 18:41 | 45.19780 | 22.02321 | 35989 ft | 412 kts | 249° |
| 2026-04-21 18:42 | 45.17290 | 21.94962 | 35985 ft | 411 kts | 249° |
| 2026-04-21 18:42 | 45.14827 | 21.87701 | 35989 ft | 411 kts | 249° |
| 2026-04-21 18:43 | 45.12340 | 21.80395 | 35998 ft | 410 kts | 249° |
| 2026-04-21 18:43 | 45.09877 | 21.73171 | 35988 ft | 409 kts | 249° |
| 2026-04-21 18:44 | 45.07403 | 21.65943 | 36003 ft | 410 kts | 249° |
| 2026-04-21 18:44 | 45.04924 | 21.58705 | 35997 ft | 410 kts | 249° |
| 2026-04-21 18:45 | 45.02426 | 21.51432 | 36009 ft | 410 kts | 249° |
| 2026-04-21 18:45 | 44.99947 | 21.44251 | 36015 ft | 409 kts | 249° |
| 2026-04-21 18:46 | 44.97410 | 21.37080 | 36018 ft | 408 kts | 248° |
| 2026-04-21 18:46 | 44.94776 | 21.29973 | 36020 ft | 409 kts | 247° |
| 2026-04-21 18:47 | 44.92144 | 21.22866 | 36005 ft | 408 kts | 247° |
| 2026-04-21 18:47 | 44.89513 | 21.15767 | 36011 ft | 408 kts | 247° |
| 2026-04-21 18:48 | 44.86904 | 21.08738 | 36017 ft | 407 kts | 247° |
| 2026-04-21 18:48 | 44.84273 | 21.01659 | 36019 ft | 406 kts | 247° |
| 2026-04-21 18:49 | 44.81652 | 20.94627 | 36018 ft | 407 kts | 247° |
| 2026-04-21 18:49 | 44.79470 | 20.88780 | 36024 ft | 406 kts | 248° |
| 2026-04-21 18:50 | 44.76405 | 20.80591 | 36005 ft | 406 kts | 247° |
| 2026-04-21 18:50 | 44.73766 | 20.73563 | 36032 ft | 406 kts | 247° |
| 2026-04-21 18:51 | 44.71149 | 20.66614 | 36010 ft | 404 kts | 248° |
| 2026-04-21 18:51 | 44.68507 | 20.59613 | 36010 ft | 404 kts | 248° |
| 2026-04-21 18:52 | 44.65871 | 20.52639 | 36030 ft | 404 kts | 247° |
| 2026-04-21 18:52 | 44.63235 | 20.45696 | 36020 ft | 403 kts | 247° |
| 2026-04-21 18:53 | 44.60596 | 20.38750 | 36033 ft | 403 kts | 247° |
| 2026-04-21 18:53 | 44.57951 | 20.31810 | 36043 ft | 404 kts | 247° |
| 2026-04-21 18:54 | 44.55309 | 20.24895 | 36035 ft | 402 kts | 247° |
| 2026-04-21 18:54 | 44.52672 | 20.18013 | 36034 ft | 403 kts | 247° |
| 2026-04-21 18:55 | 44.50478 | 20.12300 | 36032 ft | 403 kts | 247° |
| 2026-04-21 18:55 | 44.47381 | 20.04249 | 36054 ft | 402 kts | 247° |
| 2026-04-21 18:56 | 44.44723 | 19.97360 | 36028 ft | 401 kts | 247° |
| 2026-04-21 18:56 | 44.42063 | 19.90483 | 36029 ft | 401 kts | 247° |
| 2026-04-21 18:57 | 44.39423 | 19.83679 | 36033 ft | 401 kts | 247° |
| 2026-04-21 18:57 | 44.36755 | 19.76812 | 36037 ft | 401 kts | 247° |
| 2026-04-21 18:58 | 44.34106 | 19.70009 | 36022 ft | 401 kts | 247° |
| 2026-04-21 18:58 | 44.31427 | 19.63152 | 36024 ft | 401 kts | 247° |
| 2026-04-21 18:59 | 44.28775 | 19.56376 | 36043 ft | 401 kts | 247° |
| 2026-04-21 18:59 | 44.26107 | 19.49579 | 36034 ft | 399 kts | 247° |
| 2026-04-21 19:00 | 44.23444 | 19.42804 | 36037 ft | 399 kts | 247° |
| 2026-04-21 19:00 | 44.20777 | 19.36036 | 36032 ft | 400 kts | 248° |
| 2026-04-21 19:00 | 44.19439 | 19.32647 | 35741 ft | 400 kts | 246° |
| 2026-04-21 19:01 | 44.18098 | 19.29251 | 35875 ft | 399 kts | 246° |
| 2026-04-21 19:01 | 44.15404 | 19.22452 | 35992 ft | 402 kts | 246° |
| 2026-04-21 19:02 | 44.12887 | 19.15553 | 36011 ft | 399 kts | 251° |
| 2026-04-21 19:02 | 44.10674 | 19.08506 | 36004 ft | 399 kts | 251° |
| 2026-04-21 19:03 | 44.08453 | 19.01438 | 36012 ft | 399 kts | 252° |
| 2026-04-21 19:03 | 44.06227 | 18.94361 | 35990 ft | 398 kts | 252° |
| 2026-04-21 19:04 | 44.04018 | 18.87348 | 36009 ft | 398 kts | 252° |
| 2026-04-21 19:04 | 44.02344 | 18.80097 | 36009 ft | 393 kts | 258° |
| 2026-04-21 19:05 | 44.00829 | 18.72788 | 36000 ft | 393 kts | 258° |
| 2026-04-21 19:05 | 43.99312 | 18.65516 | 36005 ft | 393 kts | 258° |
| 2026-04-21 19:06 | 43.97780 | 18.58216 | 36011 ft | 393 kts | 258° |
| 2026-04-21 19:06 | 43.96241 | 18.50911 | 36014 ft | 394 kts | 259° |
| 2026-04-21 19:07 | 43.94706 | 18.43675 | 36011 ft | 394 kts | 258° |
| 2026-04-21 19:07 | 43.93154 | 18.36367 | 35998 ft | 393 kts | 259° |